Grand Canyon, AZ

10:38 AM MST on December 03, 2016 (GMT -0700)
KAZGRAND3 | | Change Station

Elev 6991 ft 36.05 °N, 112.12 °W | Updated 0 second ago

Clear
Clear
33.3 °F
Feels Like 33 °F
N
2.0
Wind Variable Wind from ESE
Gusts 5.0 mph

Today
High -- | Low -- °F
--% Chance of Precip.
Yesterday
High -- | Low -- °F
Precip. -- in
Pressure 30.17 in
Visibility 10.0 miles
Clouds Clear
Windchill 33 °F
Dew Point 9 °F
Humidity 36%
Rainfall 0.00 in
Snow Depth Not available.
7:23 AM 5:14 PM
Waxing Crescent, 16% visible
METAR KGCN 031654Z 07015G21KT 10SM CLR M01/M12 A3017 RMK AO2 SLPNO T10111117 $
Pressure 30.17 in
Visibility 10.0 miles
Clouds Clear
Windchill 33 °F
Dew Point 9 °F
Humidity 36%
Rainfall 0.00 in
Snow Depth Not available.
7:23 AM 5:14 PM
Waxing Crescent, 16% visible
METAR KGCN 031654Z 07015G21KT 10SM CLR M01/M12 A3017 RMK AO2 SLPNO T10111117 $

10-Day Weather Forecast

Almanac

Astronomy

Dec. 03, 2016 Rise Set
Actual Time
Civil Twilight
Nautical Twilight
Astronomical Twilight
Moon
Length of Visible Light
Length of Day
Tomorrow will be .
, % of the Moon is Illuminated

Today's Extremes

State Highs State Lows

Community

WunderPhotos

Upload Photos

1,955,452 photos uploaded!

WunderBlog® & News

Nearby

Air Quality

  Air Quality AQ Index Pollutant
Not available.

Snow Depth

Station Depth Elevation

Earthquake Activity

City Distance Mag. Time & Date
Minimum magnitude displayed is 2.5.

Coastal Water Temperatures

Place Temperature

Stations

Nearby Weather Stations

Station Location Temp. Windchill Dew Point Humidity Wind Precip. Elev Updated Type
                   

Watches & Warnings

There are currently no watches in effect.